sensor_id;sensor_type;location;lat;lon;timestamp;P1;durP1;ratioP1;P2;durP2;ratioP2
9661;SDS011;24982;52.344;12.990;2023-06-19T00:02:47;10.00;;;9.30;;
9661;SDS011;24982;52.344;12.990;2023-06-19T00:05:49;11.90;;;10.07;;
9661;SDS011;24982;52.344;12.990;2023-06-19T00:08:51;10.25;;;9.35;;
9661;SDS011;24982;52.344;12.990;2023-06-19T00:11:53;10.25;;;9.40;;
9661;SDS011;24982;52.344;12.990;2023-06-19T00:14:54;10.30;;;9.40;;
9661;SDS011;24982;52.344;12.990;2023-06-19T00:17:58;10.32;;;9.52;;
9661;SDS011;24982;52.344;12.990;2023-06-19T00:21:00;9.98;;;9.02;;
9661;SDS011;24982;52.344;12.990;2023-06-19T00:24:02;9.60;;;8.70;;
9661;SDS011;24982;52.344;12.990;2023-06-19T00:27:05;10.40;;;9.60;;
9661;SDS011;24982;52.344;12.990;2023-06-19T00:30:08;9.95;;;9.15;;
9661;SDS011;24982;52.344;12.990;2023-06-19T00:33:11;10.45;;;9.55;;
9661;SDS011;24982;52.344;12.990;2023-06-19T00:36:14;10.60;;;9.80;;
9661;SDS011;24982;52.344;12.990;2023-06-19T00:39:20;10.63;;;9.82;;
9661;SDS011;24982;52.344;12.990;2023-06-19T00:42:22;11.00;;;10.10;;
9661;SDS011;24982;52.344;12.990;2023-06-19T00:45:24;9.73;;;9.02;;
9661;SDS011;24982;52.344;12.990;2023-06-19T00:48:28;9.43;;;8.73;;
9661;SDS011;24982;52.344;12.990;2023-06-19T00:51:31;10.00;;;9.20;;
9661;SDS011;24982;52.344;12.990;2023-06-19T00:54:33;10.10;;;9.25;;
9661;SDS011;24982;52.344;12.990;2023-06-19T00:57:35;9.98;;;9.15;;
9661;SDS011;24982;52.344;12.990;2023-06-19T01:00:39;10.20;;;9.20;;
9661;SDS011;24982;52.344;12.990;2023-06-19T01:03:43;9.80;;;9.10;;
9661;SDS011;24982;52.344;12.990;2023-06-19T01:06:46;10.30;;;9.50;;
9661;SDS011;24982;52.344;12.990;2023-06-19T01:09:59;10.68;;;9.80;;
9661;SDS011;24982;52.344;12.990;2023-06-19T01:13:05;10.27;;;9.38;;
9661;SDS011;24982;52.344;12.990;2023-06-19T01:16:12;10.75;;;9.90;;
9661;SDS011;24982;52.344;12.990;2023-06-19T01:19:18;10.23;;;9.43;;
9661;SDS011;24982;52.344;12.990;2023-06-19T01:22:28;10.70;;;9.77;;
9661;SDS011;24982;52.344;12.990;2023-06-19T01:25:32;10.43;;;9.63;;
9661;SDS011;24982;52.344;12.990;2023-06-19T01:28:35;10.23;;;9.35;;
9661;SDS011;24982;52.344;12.990;2023-06-19T01:31:46;10.05;;;9.25;;
9661;SDS011;24982;52.344;12.990;2023-06-19T01:34:53;9.70;;;8.90;;
9661;SDS011;24982;52.344;12.990;2023-06-19T01:37:59;9.73;;;9.02;;
9661;SDS011;24982;52.344;12.990;2023-06-19T01:41:02;10.93;;;10.13;;
9661;SDS011;24982;52.344;12.990;2023-06-19T01:44:08;11.90;;;10.70;;
9661;SDS011;24982;52.344;12.990;2023-06-19T01:47:10;10.40;;;9.60;;
9661;SDS011;24982;52.344;12.990;2023-06-19T01:50:12;10.43;;;9.63;;
9661;SDS011;24982;52.344;12.990;2023-06-19T01:53:17;10.27;;;9.38;;
9661;SDS011;24982;52.344;12.990;2023-06-19T01:56:20;10.05;;;9.20;;
9661;SDS011;24982;52.344;12.990;2023-06-19T01:59:25;10.43;;;9.65;;
9661;SDS011;24982;52.344;12.990;2023-06-19T02:02:26;10.45;;;9.43;;
9661;SDS011;24982;52.344;12.990;2023-06-19T02:05:28;10.32;;;9.52;;
9661;SDS011;24982;52.344;12.990;2023-06-19T02:08:32;10.07;;;9.25;;
9661;SDS011;24982;52.344;12.990;2023-06-19T02:11:34;10.43;;;9.63;;
9661;SDS011;24982;52.344;12.990;2023-06-19T02:14:35;10.50;;;9.70;;
9661;SDS011;24982;52.344;12.990;2023-06-19T02:17:37;9.68;;;8.98;;
9661;SDS011;24982;52.344;12.990;2023-06-19T02:20:39;10.73;;;9.93;;
9661;SDS011;24982;52.344;12.990;2023-06-19T02:23:43;11.05;;;10.00;;
9661;SDS011;24982;52.344;12.990;2023-06-19T02:26:44;11.07;;;10.18;;
9661;SDS011;24982;52.344;12.990;2023-06-19T02:29:47;11.75;;;10.57;;
9661;SDS011;24982;52.344;12.990;2023-06-19T02:32:49;10.85;;;9.95;;
9661;SDS011;24982;52.344;12.990;2023-06-19T02:35:51;11.77;;;10.70;;
9661;SDS011;24982;52.344;12.990;2023-06-19T02:39:00;11.93;;;10.93;;
9661;SDS011;24982;52.344;12.990;2023-06-19T02:42:02;11.93;;;10.93;;
9661;SDS011;24982;52.344;12.990;2023-06-19T02:45:05;11.30;;;10.35;;
9661;SDS011;24982;52.344;12.990;2023-06-19T02:48:07;11.60;;;10.50;;
9661;SDS011;24982;52.344;12.990;2023-06-19T02:51:10;11.88;;;10.80;;
9661;SDS011;24982;52.344;12.990;2023-06-19T02:54:13;10.52;;;9.75;;
9661;SDS011;24982;52.344;12.990;2023-06-19T02:57:15;11.27;;;10.27;;
9661;SDS011;24982;52.344;12.990;2023-06-19T03:00:17;11.63;;;10.73;;
9661;SDS011;24982;52.344;12.990;2023-06-19T03:03:20;11.13;;;10.23;;
9661;SDS011;24982;52.344;12.990;2023-06-19T03:06:24;12.07;;;10.98;;
9661;SDS011;24982;52.344;12.990;2023-06-19T03:09:28;12.32;;;11.23;;
9661;SDS011;24982;52.344;12.990;2023-06-19T03:12:30;12.05;;;11.10;;
9661;SDS011;24982;52.344;12.990;2023-06-19T03:15:32;11.77;;;10.93;;
9661;SDS011;24982;52.344;12.990;2023-06-19T03:18:34;12.27;;;11.30;;
9661;SDS011;24982;52.344;12.990;2023-06-19T03:21:36;13.15;;;12.15;;
9661;SDS011;24982;52.344;12.990;2023-06-19T03:24:39;11.82;;;10.93;;
9661;SDS011;24982;52.344;12.990;2023-06-19T03:27:52;13.00;;;11.93;;
9661;SDS011;24982;52.344;12.990;2023-06-19T03:30:55;13.18;;;11.88;;
9661;SDS011;24982;52.344;12.990;2023-06-19T03:33:58;13.15;;;12.13;;
9661;SDS011;24982;52.344;12.990;2023-06-19T03:37:00;12.45;;;11.55;;
9661;SDS011;24982;52.344;12.990;2023-06-19T03:40:04;12.63;;;11.68;;
9661;SDS011;24982;52.344;12.990;2023-06-19T03:43:12;12.02;;;11.10;;
9661;SDS011;24982;52.344;12.990;2023-06-19T03:46:17;12.98;;;11.93;;
9661;SDS011;24982;52.344;12.990;2023-06-19T03:49:20;13.43;;;12.32;;
9661;SDS011;24982;52.344;12.990;2023-06-19T03:52:24;13.50;;;12.50;;
9661;SDS011;24982;52.344;12.990;2023-06-19T03:55:27;13.98;;;12.88;;
9661;SDS011;24982;52.344;12.990;2023-06-19T03:58:29;14.30;;;13.10;;
9661;SDS011;24982;52.344;12.990;2023-06-19T04:01:31;14.20;;;13.10;;
9661;SDS011;24982;52.344;12.990;2023-06-19T04:04:33;14.90;;;13.60;;
9661;SDS011;24982;52.344;12.990;2023-06-19T04:07:35;14.20;;;13.10;;
9661;SDS011;24982;52.344;12.990;2023-06-19T04:10:38;13.35;;;12.35;;
9661;SDS011;24982;52.344;12.990;2023-06-19T04:13:40;14.18;;;13.07;;
9661;SDS011;24982;52.344;12.990;2023-06-19T04:16:42;14.38;;;13.23;;
9661;SDS011;24982;52.344;12.990;2023-06-19T04:19:44;13.75;;;12.65;;
9661;SDS011;24982;52.344;12.990;2023-06-19T04:22:46;14.85;;;13.55;;
9661;SDS011;24982;52.344;12.990;2023-06-19T04:25:49;14.45;;;13.25;;
9661;SDS011;24982;52.344;12.990;2023-06-19T04:28:51;14.15;;;12.85;;
9661;SDS011;24982;52.344;12.990;2023-06-19T04:31:53;14.52;;;13.23;;
9661;SDS011;24982;52.344;12.990;2023-06-19T04:34:55;15.07;;;13.88;;
9661;SDS011;24982;52.344;12.990;2023-06-19T04:37:57;13.85;;;12.85;;
9661;SDS011;24982;52.344;12.990;2023-06-19T04:41:02;13.90;;;12.80;;
9661;SDS011;24982;52.344;12.990;2023-06-19T04:44:04;14.98;;;13.45;;
9661;SDS011;24982;52.344;12.990;2023-06-19T04:47:06;15.93;;;14.57;;
9661;SDS011;24982;52.344;12.990;2023-06-19T04:50:08;16.42;;;15.15;;
9661;SDS011;24982;52.344;12.990;2023-06-19T04:53:10;16.50;;;15.20;;
9661;SDS011;24982;52.344;12.990;2023-06-19T04:56:14;13.90;;;12.80;;
9661;SDS011;24982;52.344;12.990;2023-06-19T04:59:16;15.93;;;14.63;;
9661;SDS011;24982;52.344;12.990;2023-06-19T05:02:19;15.43;;;14.18;;
9661;SDS011;24982;52.344;12.990;2023-06-19T05:05:21;14.70;;;13.50;;
9661;SDS011;24982;52.344;12.990;2023-06-19T05:08:23;15.55;;;14.25;;
9661;SDS011;24982;52.344;12.990;2023-06-19T05:11:26;15.07;;;13.85;;
9661;SDS011;24982;52.344;12.990;2023-06-19T05:14:28;14.80;;;13.60;;
9661;SDS011;24982;52.344;12.990;2023-06-19T05:17:30;15.43;;;14.15;;
9661;SDS011;24982;52.344;12.990;2023-06-19T05:20:31;15.38;;;14.18;;
9661;SDS011;24982;52.344;12.990;2023-06-19T05:23:33;15.05;;;13.82;;
9661;SDS011;24982;52.344;12.990;2023-06-19T05:26:37;15.00;;;13.80;;
9661;SDS011;24982;52.344;12.990;2023-06-19T05:29:39;15.05;;;13.63;;
9661;SDS011;24982;52.344;12.990;2023-06-19T05:32:41;14.18;;;13.07;;
9661;SDS011;24982;52.344;12.990;2023-06-19T05:35:43;14.80;;;13.55;;
9661;SDS011;24982;52.344;12.990;2023-06-19T05:38:51;13.85;;;12.75;;
9661;SDS011;24982;52.344;12.990;2023-06-19T05:41:54;13.93;;;12.82;;
9661;SDS011;24982;52.344;12.990;2023-06-19T05:44:56;14.45;;;13.25;;
9661;SDS011;24982;52.344;12.990;2023-06-19T05:47:58;14.05;;;12.95;;
9661;SDS011;24982;52.344;12.990;2023-06-19T05:51:00;12.52;;;11.63;;
9661;SDS011;24982;52.344;12.990;2023-06-19T05:54:02;13.98;;;12.90;;
9661;SDS011;24982;52.344;12.990;2023-06-19T05:57:06;13.52;;;12.43;;
9661;SDS011;24982;52.344;12.990;2023-06-19T06:00:08;14.45;;;13.35;;
9661;SDS011;24982;52.344;12.990;2023-06-19T06:03:14;14.80;;;13.63;;
9661;SDS011;24982;52.344;12.990;2023-06-19T06:06:16;14.27;;;13.18;;
9661;SDS011;24982;52.344;12.990;2023-06-19T06:09:17;13.40;;;12.40;;
9661;SDS011;24982;52.344;12.990;2023-06-19T06:12:21;13.30;;;12.20;;
9661;SDS011;24982;52.344;12.990;2023-06-19T06:15:23;13.48;;;12.48;;
9661;SDS011;24982;52.344;12.990;2023-06-19T06:18:25;13.52;;;12.52;;
9661;SDS011;24982;52.344;12.990;2023-06-19T06:21:27;14.60;;;13.48;;
9661;SDS011;24982;52.344;12.990;2023-06-19T06:24:29;14.07;;;12.98;;
9661;SDS011;24982;52.344;12.990;2023-06-19T06:27:32;14.15;;;13.05;;
9661;SDS011;24982;52.344;12.990;2023-06-19T06:30:34;13.18;;;12.07;;
9661;SDS011;24982;52.344;12.990;2023-06-19T06:33:36;13.77;;;12.68;;
9661;SDS011;24982;52.344;12.990;2023-06-19T06:36:38;14.60;;;13.50;;
9661;SDS011;24982;52.344;12.990;2023-06-19T06:39:40;14.00;;;13.00;;
9661;SDS011;24982;52.344;12.990;2023-06-19T06:42:43;14.50;;;13.38;;
9661;SDS011;24982;52.344;12.990;2023-06-19T06:45:45;14.35;;;13.00;;
9661;SDS011;24982;52.344;12.990;2023-06-19T06:48:47;13.40;;;12.30;;
9661;SDS011;24982;52.344;12.990;2023-06-19T06:51:50;13.60;;;12.50;;
9661;SDS011;24982;52.344;12.990;2023-06-19T06:54:52;14.23;;;12.90;;
9661;SDS011;24982;52.344;12.990;2023-06-19T06:57:55;11.75;;;10.75;;
9661;SDS011;24982;52.344;12.990;2023-06-19T07:00:57;14.50;;;13.40;;
9661;SDS011;24982;52.344;12.990;2023-06-19T07:03:59;12.88;;;11.88;;
9661;SDS011;24982;52.344;12.990;2023-06-19T07:07:01;13.82;;;12.48;;
9661;SDS011;24982;52.344;12.990;2023-06-19T07:10:04;14.75;;;13.55;;
9661;SDS011;24982;52.344;12.990;2023-06-19T07:13:08;13.88;;;12.80;;
9661;SDS011;24982;52.344;12.990;2023-06-19T07:16:10;13.93;;;12.73;;
9661;SDS011;24982;52.344;12.990;2023-06-19T07:19:12;14.90;;;13.70;;
9661;SDS011;24982;52.344;12.990;2023-06-19T07:22:15;12.25;;;11.20;;
9661;SDS011;24982;52.344;12.990;2023-06-19T07:25:17;13.43;;;12.43;;
9661;SDS011;24982;52.344;12.990;2023-06-19T07:28:20;11.50;;;10.50;;
9661;SDS011;24982;52.344;12.990;2023-06-19T07:31:22;14.50;;;13.38;;
9661;SDS011;24982;52.344;12.990;2023-06-19T07:34:24;13.88;;;12.77;;
9661;SDS011;24982;52.344;12.990;2023-06-19T07:37:26;13.90;;;12.70;;
9661;SDS011;24982;52.344;12.990;2023-06-19T07:40:28;13.90;;;12.80;;
9661;SDS011;24982;52.344;12.990;2023-06-19T07:43:31;14.88;;;13.30;;
9661;SDS011;24982;52.344;12.990;2023-06-19T07:46:33;15.52;;;14.23;;
9661;SDS011;24982;52.344;12.990;2023-06-19T07:49:35;14.43;;;13.32;;
9661;SDS011;24982;52.344;12.990;2023-06-19T07:52:37;15.32;;;13.98;;
9661;SDS011;24982;52.344;12.990;2023-06-19T07:55:39;15.80;;;14.32;;
9661;SDS011;24982;52.344;12.990;2023-06-19T07:58:44;15.40;;;14.10;;
9661;SDS011;24982;52.344;12.990;2023-06-19T08:01:45;15.35;;;14.00;;
9661;SDS011;24982;52.344;12.990;2023-06-19T08:04:47;15.77;;;14.57;;
9661;SDS011;24982;52.344;12.990;2023-06-19T08:07:49;14.75;;;13.52;;
9661;SDS011;24982;52.344;12.990;2023-06-19T08:10:51;15.15;;;13.93;;
9661;SDS011;24982;52.344;12.990;2023-06-19T08:13:54;15.02;;;13.82;;
9661;SDS011;24982;52.344;12.990;2023-06-19T08:16:56;16.42;;;15.02;;
9661;SDS011;24982;52.344;12.990;2023-06-19T08:19:58;15.20;;;13.95;;
9661;SDS011;24982;52.344;12.990;2023-06-19T08:23:06;14.55;;;13.38;;
9661;SDS011;24982;52.344;12.990;2023-06-19T08:26:08;14.77;;;13.60;;
9661;SDS011;24982;52.344;12.990;2023-06-19T08:29:11;14.40;;;13.20;;
9661;SDS011;24982;52.344;12.990;2023-06-19T08:32:13;15.82;;;14.52;;
9661;SDS011;24982;52.344;12.990;2023-06-19T08:35:15;14.57;;;13.45;;
9661;SDS011;24982;52.344;12.990;2023-06-19T08:38:17;15.40;;;14.15;;
9661;SDS011;24982;52.344;12.990;2023-06-19T08:41:19;15.88;;;14.40;;
9661;SDS011;24982;52.344;12.990;2023-06-19T08:44:22;15.98;;;14.52;;
9661;SDS011;24982;52.344;12.990;2023-06-19T08:47:28;15.35;;;14.07;;
9661;SDS011;24982;52.344;12.990;2023-06-19T08:50:30;15.38;;;14.07;;
9661;SDS011;24982;52.344;12.990;2023-06-19T08:53:33;16.30;;;15.00;;
9661;SDS011;24982;52.344;12.990;2023-06-19T08:56:39;15.70;;;14.32;;
9661;SDS011;24982;52.344;12.990;2023-06-19T08:59:49;16.17;;;14.75;;
9661;SDS011;24982;52.344;12.990;2023-06-19T09:02:51;16.55;;;15.20;;
9661;SDS011;24982;52.344;12.990;2023-06-19T09:05:53;16.73;;;15.23;;
9661;SDS011;24982;52.344;12.990;2023-06-19T09:08:57;15.77;;;14.57;;
9661;SDS011;24982;52.344;12.990;2023-06-19T09:12:00;16.23;;;14.73;;
9661;SDS011;24982;52.344;12.990;2023-06-19T09:15:12;15.45;;;14.15;;
9661;SDS011;24982;52.344;12.990;2023-06-19T09:18:14;16.73;;;15.23;;
9661;SDS011;24982;52.344;12.990;2023-06-19T09:21:16;16.38;;;15.00;;
9661;SDS011;24982;52.344;12.990;2023-06-19T09:24:19;16.83;;;15.32;;
9661;SDS011;24982;52.344;12.990;2023-06-19T09:27:21;16.25;;;14.65;;
9661;SDS011;24982;52.344;12.990;2023-06-19T09:30:24;15.48;;;14.07;;
9661;SDS011;24982;52.344;12.990;2023-06-19T09:33:27;15.23;;;14.02;;
9661;SDS011;24982;52.344;12.990;2023-06-19T09:36:30;17.08;;;15.68;;
9661;SDS011;24982;52.344;12.990;2023-06-19T09:39:35;16.42;;;15.00;;
9661;SDS011;24982;52.344;12.990;2023-06-19T09:42:38;16.15;;;14.90;;
9661;SDS011;24982;52.344;12.990;2023-06-19T09:45:50;15.52;;;14.30;;
9661;SDS011;24982;52.344;12.990;2023-06-19T09:48:56;16.17;;;14.73;;
9661;SDS011;24982;52.344;12.990;2023-06-19T09:52:01;17.05;;;15.70;;
9661;SDS011;24982;52.344;12.990;2023-06-19T09:55:04;17.00;;;15.60;;
9661;SDS011;24982;52.344;12.990;2023-06-19T09:58:08;16.48;;;15.18;;
9661;SDS011;24982;52.344;12.990;2023-06-19T10:01:12;16.50;;;15.10;;
9661;SDS011;24982;52.344;12.990;2023-06-19T10:04:15;17.05;;;15.65;;
9661;SDS011;24982;52.344;12.990;2023-06-19T10:07:19;17.50;;;16.10;;
9661;SDS011;24982;52.344;12.990;2023-06-19T10:10:23;17.52;;;15.98;;
9661;SDS011;24982;52.344;12.990;2023-06-19T10:13:33;16.80;;;15.27;;
9661;SDS011;24982;52.344;12.990;2023-06-19T10:16:38;17.85;;;16.35;;
9661;SDS011;24982;52.344;12.990;2023-06-19T10:19:48;16.40;;;15.00;;
9661;SDS011;24982;52.344;12.990;2023-06-19T10:22:52;16.45;;;15.15;;
9661;SDS011;24982;52.344;12.990;2023-06-19T10:25:58;18.50;;;17.00;;
9661;SDS011;24982;52.344;12.990;2023-06-19T10:29:01;17.95;;;16.33;;
9661;SDS011;24982;52.344;12.990;2023-06-19T10:32:15;17.13;;;15.77;;
9661;SDS011;24982;52.344;12.990;2023-06-19T10:35:18;16.95;;;15.55;;
9661;SDS011;24982;52.344;12.990;2023-06-19T10:38:21;16.95;;;15.55;;
9661;SDS011;24982;52.344;12.990;2023-06-19T10:41:24;17.05;;;15.75;;
9661;SDS011;24982;52.344;12.990;2023-06-19T10:44:26;18.00;;;16.42;;
9661;SDS011;24982;52.344;12.990;2023-06-19T10:47:30;17.83;;;16.33;;
9661;SDS011;24982;52.344;12.990;2023-06-19T10:50:35;16.77;;;15.38;;
9661;SDS011;24982;52.344;12.990;2023-06-19T10:53:38;15.65;;;14.20;;
9661;SDS011;24982;52.344;12.990;2023-06-19T10:56:40;15.75;;;14.18;;
9661;SDS011;24982;52.344;12.990;2023-06-19T10:59:43;15.30;;;13.93;;
9661;SDS011;24982;52.344;12.990;2023-06-19T11:02:47;14.70;;;13.50;;
9661;SDS011;24982;52.344;12.990;2023-06-19T11:05:48;14.52;;;13.38;;
9661;SDS011;24982;52.344;12.990;2023-06-19T11:08:51;15.05;;;13.75;;
9661;SDS011;24982;52.344;12.990;2023-06-19T11:11:53;14.57;;;13.38;;
9661;SDS011;24982;52.344;12.990;2023-06-19T11:14:55;14.65;;;13.35;;
9661;SDS011;24982;52.344;12.990;2023-06-19T11:17:58;14.57;;;13.38;;
9661;SDS011;24982;52.344;12.990;2023-06-19T11:21:02;14.25;;;13.05;;
9661;SDS011;24982;52.344;12.990;2023-06-19T11:24:04;14.65;;;13.35;;
9661;SDS011;24982;52.344;12.990;2023-06-19T11:27:21;14.45;;;13.35;;
9661;SDS011;24982;52.344;12.990;2023-06-19T11:30:30;14.63;;;13.35;;
9661;SDS011;24982;52.344;12.990;2023-06-19T11:33:34;14.15;;;12.93;;
9661;SDS011;24982;52.344;12.990;2023-06-19T11:36:37;13.23;;;12.13;;
9661;SDS011;24982;52.344;12.990;2023-06-19T11:39:40;14.75;;;13.60;;
9661;SDS011;24982;52.344;12.990;2023-06-19T11:42:45;13.70;;;12.65;;
9661;SDS011;24982;52.344;12.990;2023-06-19T11:45:48;12.23;;;11.32;;
9661;SDS011;24982;52.344;12.990;2023-06-19T11:48:54;12.65;;;11.65;;
9661;SDS011;24982;52.344;12.990;2023-06-19T11:51:57;11.93;;;10.93;;
9661;SDS011;24982;52.344;12.990;2023-06-19T11:54:59;12.40;;;11.45;;
9661;SDS011;24982;52.344;12.990;2023-06-19T11:58:01;11.88;;;10.98;;
9661;SDS011;24982;52.344;12.990;2023-06-19T12:01:04;11.02;;;10.23;;
9661;SDS011;24982;52.344;12.990;2023-06-19T12:04:07;11.82;;;10.93;;
9661;SDS011;24982;52.344;12.990;2023-06-19T12:07:09;11.43;;;10.32;;
9661;SDS011;24982;52.344;12.990;2023-06-19T12:10:11;11.38;;;10.35;;
9661;SDS011;24982;52.344;12.990;2023-06-19T12:13:13;11.40;;;10.30;;
9661;SDS011;24982;52.344;12.990;2023-06-19T12:16:15;12.35;;;11.18;;
9661;SDS011;24982;52.344;12.990;2023-06-19T12:19:18;12.02;;;10.95;;
9661;SDS011;24982;52.344;12.990;2023-06-19T12:22:20;11.18;;;10.25;;
9661;SDS011;24982;52.344;12.990;2023-06-19T12:25:23;11.63;;;10.63;;
9661;SDS011;24982;52.344;12.990;2023-06-19T12:28:25;11.75;;;10.85;;
9661;SDS011;24982;52.344;12.990;2023-06-19T12:31:26;12.38;;;11.27;;
9661;SDS011;24982;52.344;12.990;2023-06-19T12:34:30;12.30;;;11.40;;
9661;SDS011;24982;52.344;12.990;2023-06-19T12:37:32;12.18;;;11.18;;
9661;SDS011;24982;52.344;12.990;2023-06-19T12:40:34;11.35;;;10.45;;
9661;SDS011;24982;52.344;12.990;2023-06-19T12:43:36;12.27;;;11.27;;
9661;SDS011;24982;52.344;12.990;2023-06-19T12:46:37;12.57;;;11.43;;
9661;SDS011;24982;52.344;12.990;2023-06-19T12:49:41;11.18;;;10.30;;
9661;SDS011;24982;52.344;12.990;2023-06-19T12:52:43;11.35;;;10.25;;
9661;SDS011;24982;52.344;12.990;2023-06-19T12:55:45;10.90;;;9.93;;
9661;SDS011;24982;52.344;12.990;2023-06-19T12:58:47;11.63;;;10.60;;
9661;SDS011;24982;52.344;12.990;2023-06-19T13:01:49;11.10;;;10.13;;
9661;SDS011;24982;52.344;12.990;2023-06-19T13:04:52;10.77;;;9.88;;
9661;SDS011;24982;52.344;12.990;2023-06-19T13:07:54;10.70;;;9.90;;
9661;SDS011;24982;52.344;12.990;2023-06-19T13:10:56;10.75;;;9.95;;
9661;SDS011;24982;52.344;12.990;2023-06-19T13:13:58;11.48;;;10.50;;
9661;SDS011;24982;52.344;12.990;2023-06-19T13:17:00;12.25;;;11.15;;
9661;SDS011;24982;52.344;12.990;2023-06-19T13:20:03;11.60;;;10.80;;
9661;SDS011;24982;52.344;12.990;2023-06-19T13:23:06;12.80;;;11.70;;
9661;SDS011;24982;52.344;12.990;2023-06-19T13:26:09;12.43;;;11.43;;
9661;SDS011;24982;52.344;12.990;2023-06-19T13:29:11;11.73;;;10.82;;
9661;SDS011;24982;52.344;12.990;2023-06-19T13:32:13;11.70;;;10.70;;
9661;SDS011;24982;52.344;12.990;2023-06-19T13:35:16;10.88;;;10.07;;
9661;SDS011;24982;52.344;12.990;2023-06-19T13:38:18;11.25;;;10.35;;
9661;SDS011;24982;52.344;12.990;2023-06-19T13:41:21;10.35;;;9.57;;
9661;SDS011;24982;52.344;12.990;2023-06-19T13:44:24;9.85;;;9.15;;
9661;SDS011;24982;52.344;12.990;2023-06-19T13:47:26;9.90;;;9.20;;
9661;SDS011;24982;52.344;12.990;2023-06-19T13:50:29;10.70;;;9.90;;
9661;SDS011;24982;52.344;12.990;2023-06-19T13:53:32;11.70;;;10.75;;
9661;SDS011;24982;52.344;12.990;2023-06-19T13:56:34;10.75;;;9.95;;
9661;SDS011;24982;52.344;12.990;2023-06-19T13:59:37;11.95;;;10.85;;
9661;SDS011;24982;52.344;12.990;2023-06-19T14:02:39;10.48;;;9.57;;
9661;SDS011;24982;52.344;12.990;2023-06-19T14:05:43;10.30;;;9.60;;
9661;SDS011;24982;52.344;12.990;2023-06-19T14:08:45;10.27;;;9.35;;
9661;SDS011;24982;52.344;12.990;2023-06-19T14:11:47;10.10;;;9.27;;
9661;SDS011;24982;52.344;12.990;2023-06-19T14:14:48;10.50;;;9.65;;
9661;SDS011;24982;52.344;12.990;2023-06-19T14:17:52;10.57;;;9.68;;
9661;SDS011;24982;52.344;12.990;2023-06-19T14:20:55;10.65;;;9.75;;
9661;SDS011;24982;52.344;12.990;2023-06-19T14:23:57;10.38;;;9.40;;
9661;SDS011;24982;52.344;12.990;2023-06-19T14:26:59;10.27;;;9.57;;
9661;SDS011;24982;52.344;12.990;2023-06-19T14:30:01;10.48;;;9.57;;
9661;SDS011;24982;52.344;12.990;2023-06-19T14:33:04;9.45;;;8.75;;
9661;SDS011;24982;52.344;12.990;2023-06-19T14:36:11;10.15;;;9.45;;
9661;SDS011;24982;52.344;12.990;2023-06-19T14:39:13;10.23;;;9.20;;
9661;SDS011;24982;52.344;12.990;2023-06-19T14:42:15;10.55;;;8.90;;
9661;SDS011;24982;52.344;12.990;2023-06-19T14:45:17;10.23;;;9.32;;
9661;SDS011;24982;52.344;12.990;2023-06-19T14:48:19;9.60;;;8.90;;
9661;SDS011;24982;52.344;12.990;2023-06-19T14:51:22;9.90;;;9.10;;
9661;SDS011;24982;52.344;12.990;2023-06-19T14:54:24;9.90;;;9.00;;
9661;SDS011;24982;52.344;12.990;2023-06-19T14:57:26;9.63;;;8.82;;
9661;SDS011;24982;52.344;12.990;2023-06-19T15:00:28;9.70;;;9.00;;
9661;SDS011;24982;52.344;12.990;2023-06-19T15:03:33;9.00;;;8.30;;
9661;SDS011;24982;52.344;12.990;2023-06-19T15:06:36;9.95;;;9.25;;
9661;SDS011;24982;52.344;12.990;2023-06-19T15:09:38;9.45;;;8.75;;
9661;SDS011;24982;52.344;12.990;2023-06-19T15:12:40;9.90;;;9.20;;
9661;SDS011;24982;52.344;12.990;2023-06-19T15:15:42;10.25;;;9.35;;
9661;SDS011;24982;52.344;12.990;2023-06-19T15:18:44;10.25;;;9.45;;
9661;SDS011;24982;52.344;12.990;2023-06-19T15:21:47;9.32;;;8.63;;
9661;SDS011;24982;52.344;12.990;2023-06-19T15:24:49;10.10;;;9.27;;
9661;SDS011;24982;52.344;12.990;2023-06-19T15:27:51;9.63;;;8.93;;
9661;SDS011;24982;52.344;12.990;2023-06-19T15:30:53;10.25;;;9.45;;
9661;SDS011;24982;52.344;12.990;2023-06-19T15:33:55;9.43;;;8.73;;
9661;SDS011;24982;52.344;12.990;2023-06-19T15:36:58;10.70;;;9.90;;
9661;SDS011;24982;52.344;12.990;2023-06-19T15:40:01;10.18;;;9.25;;
9661;SDS011;24982;52.344;12.990;2023-06-19T15:43:03;9.70;;;9.00;;
9661;SDS011;24982;52.344;12.990;2023-06-19T15:46:05;10.20;;;9.40;;
9661;SDS011;24982;52.344;12.990;2023-06-19T15:49:08;9.63;;;8.82;;
9661;SDS011;24982;52.344;12.990;2023-06-19T15:52:14;10.32;;;9.45;;
9661;SDS011;24982;52.344;12.990;2023-06-19T15:55:16;10.40;;;9.50;;
9661;SDS011;24982;52.344;12.990;2023-06-19T15:58:18;10.98;;;10.18;;
9661;SDS011;24982;52.344;12.990;2023-06-19T16:01:20;10.73;;;9.80;;
9661;SDS011;24982;52.344;12.990;2023-06-19T16:04:23;10.20;;;9.30;;
9661;SDS011;24982;52.344;12.990;2023-06-19T16:07:26;10.02;;;9.30;;
9661;SDS011;24982;52.344;12.990;2023-06-19T16:10:28;10.13;;;9.40;;
9661;SDS011;24982;52.344;12.990;2023-06-19T16:13:30;10.35;;;9.38;;
9661;SDS011;24982;52.344;12.990;2023-06-19T16:16:32;9.50;;;8.70;;
9661;SDS011;24982;52.344;12.990;2023-06-19T16:19:34;10.57;;;9.68;;
9661;SDS011;24982;52.344;12.990;2023-06-19T16:22:37;10.80;;;9.80;;
9661;SDS011;24982;52.344;12.990;2023-06-19T16:25:39;11.23;;;10.05;;
9661;SDS011;24982;52.344;12.990;2023-06-19T16:28:41;10.40;;;9.60;;
9661;SDS011;24982;52.344;12.990;2023-06-19T16:31:43;10.68;;;9.88;;
9661;SDS011;24982;52.344;12.990;2023-06-19T16:34:45;10.63;;;9.73;;
9661;SDS011;24982;52.344;12.990;2023-06-19T16:37:49;10.68;;;9.88;;
9661;SDS011;24982;52.344;12.990;2023-06-19T16:40:53;10.23;;;9.13;;
9661;SDS011;24982;52.344;12.990;2023-06-19T16:43:55;10.50;;;9.70;;
9661;SDS011;24982;52.344;12.990;2023-06-19T16:46:57;10.05;;;9.25;;
9661;SDS011;24982;52.344;12.990;2023-06-19T16:49:59;10.38;;;9.50;;
9661;SDS011;24982;52.344;12.990;2023-06-19T16:53:02;11.02;;;10.13;;
9661;SDS011;24982;52.344;12.990;2023-06-19T16:56:06;11.20;;;10.20;;
9661;SDS011;24982;52.344;12.990;2023-06-19T16:59:07;11.32;;;10.25;;
9661;SDS011;24982;52.344;12.990;2023-06-19T17:02:10;10.80;;;9.98;;
9661;SDS011;24982;52.344;12.990;2023-06-19T17:05:12;10.73;;;9.73;;
9661;SDS011;24982;52.344;12.990;2023-06-19T17:08:15;10.55;;;9.73;;
9661;SDS011;24982;52.344;12.990;2023-06-19T17:11:17;10.27;;;9.40;;
9661;SDS011;24982;52.344;12.990;2023-06-19T17:14:19;8.32;;;7.28;;
9661;SDS011;24982;52.344;12.990;2023-06-19T17:17:21;9.27;;;7.45;;
9661;SDS011;24982;52.344;12.990;2023-06-19T17:20:23;10.50;;;9.57;;
9661;SDS011;24982;52.344;12.990;2023-06-19T17:23:26;10.70;;;9.85;;
9661;SDS011;24982;52.344;12.990;2023-06-19T17:26:28;11.52;;;10.55;;
9661;SDS011;24982;52.344;12.990;2023-06-19T17:29:30;10.95;;;10.10;;
9661;SDS011;24982;52.344;12.990;2023-06-19T17:32:32;10.90;;;10.10;;
9661;SDS011;24982;52.344;12.990;2023-06-19T17:35:34;11.55;;;10.55;;
9661;SDS011;24982;52.344;12.990;2023-06-19T17:38:37;11.52;;;10.63;;
9661;SDS011;24982;52.344;12.990;2023-06-19T17:41:39;11.70;;;10.80;;
9661;SDS011;24982;52.344;12.990;2023-06-19T17:44:43;11.55;;;10.65;;
9661;SDS011;24982;52.344;12.990;2023-06-19T17:47:44;12.15;;;10.90;;
9661;SDS011;24982;52.344;12.990;2023-06-19T17:50:46;10.82;;;9.98;;
9661;SDS011;24982;52.344;12.990;2023-06-19T17:53:53;11.77;;;10.77;;
9661;SDS011;24982;52.344;12.990;2023-06-19T17:56:54;11.02;;;10.23;;